sensor_id;sensor_type;location;lat;lon;timestamp;P1;durP1;ratioP1;P2;durP2;ratioP2
25279;SDS011;13225;47.804;12.116;2022-10-16T00:00:56;7.35;;;4.05;;
25279;SDS011;13225;47.804;12.116;2022-10-16T00:03:23;7.55;;;4.30;;
25279;SDS011;13225;47.804;12.116;2022-10-16T00:05:48;7.40;;;4.50;;
25279;SDS011;13225;47.804;12.116;2022-10-16T00:08:14;8.75;;;4.63;;
25279;SDS011;13225;47.804;12.116;2022-10-16T00:10:40;5.43;;;3.90;;
25279;SDS011;13225;47.804;12.116;2022-10-16T00:13:06;8.35;;;4.35;;
25279;SDS011;13225;47.804;12.116;2022-10-16T00:15:36;5.72;;;4.22;;
25279;SDS011;13225;47.804;12.116;2022-10-16T00:18:03;7.78;;;4.25;;
25279;SDS011;13225;47.804;12.116;2022-10-16T00:20:29;5.57;;;3.92;;
25279;SDS011;13225;47.804;12.116;2022-10-16T00:22:56;6.00;;;4.10;;
25279;SDS011;13225;47.804;12.116;2022-10-16T00:25:22;6.95;;;4.38;;
25279;SDS011;13225;47.804;12.116;2022-10-16T00:27:48;6.22;;;4.50;;
25279;SDS011;13225;47.804;12.116;2022-10-16T00:30:13;6.65;;;4.10;;
25279;SDS011;13225;47.804;12.116;2022-10-16T00:32:39;7.43;;;4.40;;
25279;SDS011;13225;47.804;12.116;2022-10-16T00:35:05;5.00;;;4.00;;
25279;SDS011;13225;47.804;12.116;2022-10-16T00:37:30;7.00;;;4.30;;
25279;SDS011;13225;47.804;12.116;2022-10-16T00:39:56;8.85;;;5.20;;
25279;SDS011;13225;47.804;12.116;2022-10-16T00:42:22;6.50;;;4.78;;
25279;SDS011;13225;47.804;12.116;2022-10-16T00:44:55;7.45;;;5.50;;
25279;SDS011;13225;47.804;12.116;2022-10-16T00:47:24;9.27;;;5.65;;
25279;SDS011;13225;47.804;12.116;2022-10-16T00:49:59;7.88;;;4.97;;
25279;SDS011;13225;47.804;12.116;2022-10-16T00:52:31;12.77;;;5.40;;
25279;SDS011;13225;47.804;12.116;2022-10-16T00:54:56;7.78;;;5.28;;
25279;SDS011;13225;47.804;12.116;2022-10-16T00:57:23;7.97;;;4.88;;
25279;SDS011;13225;47.804;12.116;2022-10-16T00:59:49;7.05;;;4.55;;
25279;SDS011;13225;47.804;12.116;2022-10-16T01:02:16;11.57;;;5.43;;
25279;SDS011;13225;47.804;12.116;2022-10-16T01:04:52;9.02;;;5.38;;
25279;SDS011;13225;47.804;12.116;2022-10-16T01:21:12;8.98;;;4.60;;
25279;SDS011;13225;47.804;12.116;2022-10-16T01:24:01;7.70;;;5.07;;
25279;SDS011;13225;47.804;12.116;2022-10-16T01:27:17;5.47;;;4.40;;
25279;SDS011;13225;47.804;12.116;2022-10-16T01:37:39;7.45;;;5.38;;
25279;SDS011;13225;47.804;12.116;2022-10-16T01:40:10;6.57;;;5.10;;
25279;SDS011;13225;47.804;12.116;2022-10-16T01:42:41;11.10;;;5.30;;
25279;SDS011;13225;47.804;12.116;2022-10-16T01:45:11;8.15;;;4.78;;
25279;SDS011;13225;47.804;12.116;2022-10-16T01:47:40;8.20;;;5.13;;
25279;SDS011;13225;47.804;12.116;2022-10-16T01:50:08;7.72;;;5.57;;
25279;SDS011;13225;47.804;12.116;2022-10-16T01:52:35;8.75;;;5.38;;
25279;SDS011;13225;47.804;12.116;2022-10-16T01:55:05;7.93;;;4.82;;
25279;SDS011;13225;47.804;12.116;2022-10-16T01:57:34;8.93;;;5.00;;
25279;SDS011;13225;47.804;12.116;2022-10-16T02:00:05;7.50;;;4.13;;
25279;SDS011;13225;47.804;12.116;2022-10-16T02:02:35;8.48;;;4.22;;
25279;SDS011;13225;47.804;12.116;2022-10-16T02:05:04;6.50;;;4.22;;
25279;SDS011;13225;47.804;12.116;2022-10-16T02:07:55;8.07;;;4.30;;
25279;SDS011;13225;47.804;12.116;2022-10-16T02:10:21;6.22;;;3.78;;
25279;SDS011;13225;47.804;12.116;2022-10-16T02:15:51;5.90;;;4.07;;
25279;SDS011;13225;47.804;12.116;2022-10-16T02:18:17;5.82;;;4.35;;
25279;SDS011;13225;47.804;12.116;2022-10-16T02:20:55;6.53;;;4.45;;
25279;SDS011;13225;47.804;12.116;2022-10-16T02:24:08;5.95;;;4.25;;
25279;SDS011;13225;47.804;12.116;2022-10-16T02:26:31;9.30;;;4.25;;
25279;SDS011;13225;47.804;12.116;2022-10-16T02:29:00;5.95;;;4.40;;
25279;SDS011;13225;47.804;12.116;2022-10-16T02:31:34;6.95;;;3.90;;
25279;SDS011;13225;47.804;12.116;2022-10-16T02:34:02;6.65;;;4.13;;
25279;SDS011;13225;47.804;12.116;2022-10-16T02:36:30;6.38;;;4.65;;
25279;SDS011;13225;47.804;12.116;2022-10-16T02:38:57;5.97;;;4.45;;
25279;SDS011;13225;47.804;12.116;2022-10-16T02:41:25;5.97;;;4.57;;
25279;SDS011;13225;47.804;12.116;2022-10-16T02:43:51;5.82;;;4.65;;
25279;SDS011;13225;47.804;12.116;2022-10-16T02:46:16;10.27;;;5.32;;
25279;SDS011;13225;47.804;12.116;2022-10-16T02:48:43;8.05;;;5.32;;
25279;SDS011;13225;47.804;12.116;2022-10-16T02:51:09;7.97;;;4.95;;
25279;SDS011;13225;47.804;12.116;2022-10-16T02:53:34;6.70;;;5.10;;
25279;SDS011;13225;47.804;12.116;2022-10-16T02:56:00;7.93;;;5.60;;
25279;SDS011;13225;47.804;12.116;2022-10-16T02:58:26;7.97;;;5.75;;
25279;SDS011;13225;47.804;12.116;2022-10-16T03:00:52;8.10;;;5.20;;
25279;SDS011;13225;47.804;12.116;2022-10-16T03:03:17;8.75;;;5.28;;
25279;SDS011;13225;47.804;12.116;2022-10-16T03:05:43;9.70;;;5.25;;
25279;SDS011;13225;47.804;12.116;2022-10-16T03:08:11;9.82;;;5.40;;
25279;SDS011;13225;47.804;12.116;2022-10-16T03:10:37;9.57;;;5.35;;
25279;SDS011;13225;47.804;12.116;2022-10-16T03:13:02;7.70;;;5.40;;
25279;SDS011;13225;47.804;12.116;2022-10-16T03:15:28;9.48;;;4.90;;
25279;SDS011;13225;47.804;12.116;2022-10-16T03:17:54;6.97;;;4.15;;
25279;SDS011;13225;47.804;12.116;2022-10-16T03:20:20;11.30;;;4.78;;
25279;SDS011;13225;47.804;12.116;2022-10-16T03:22:45;7.07;;;5.10;;
25279;SDS011;13225;47.804;12.116;2022-10-16T03:25:11;15.18;;;5.25;;
25279;SDS011;13225;47.804;12.116;2022-10-16T03:27:37;8.40;;;5.22;;
25279;SDS011;13225;47.804;12.116;2022-10-16T03:30:02;6.60;;;4.82;;
25279;SDS011;13225;47.804;12.116;2022-10-16T03:32:28;8.02;;;4.82;;
25279;SDS011;13225;47.804;12.116;2022-10-16T03:34:54;7.60;;;4.00;;
25279;SDS011;13225;47.804;12.116;2022-10-16T03:37:21;8.40;;;4.97;;
25279;SDS011;13225;47.804;12.116;2022-10-16T03:39:47;7.50;;;4.90;;
25279;SDS011;13225;47.804;12.116;2022-10-16T03:42:12;6.18;;;4.68;;
25279;SDS011;13225;47.804;12.116;2022-10-16T03:44:38;8.77;;;4.97;;
25279;SDS011;13225;47.804;12.116;2022-10-16T03:47:03;8.85;;;5.15;;
25279;SDS011;13225;47.804;12.116;2022-10-16T03:49:29;8.25;;;5.78;;
25279;SDS011;13225;47.804;12.116;2022-10-16T03:51:55;7.57;;;5.25;;
25279;SDS011;13225;47.804;12.116;2022-10-16T03:54:20;13.60;;;5.97;;
25279;SDS011;13225;47.804;12.116;2022-10-16T03:56:47;7.38;;;5.70;;
25279;SDS011;13225;47.804;12.116;2022-10-16T03:59:13;9.57;;;5.55;;
25279;SDS011;13225;47.804;12.116;2022-10-16T04:01:38;7.53;;;4.60;;
25279;SDS011;13225;47.804;12.116;2022-10-16T04:04:04;9.30;;;5.15;;
25279;SDS011;13225;47.804;12.116;2022-10-16T04:06:29;9.35;;;5.20;;
25279;SDS011;13225;47.804;12.116;2022-10-16T04:08:55;8.82;;;4.00;;
25279;SDS011;13225;47.804;12.116;2022-10-16T04:11:22;6.28;;;4.25;;
25279;SDS011;13225;47.804;12.116;2022-10-16T04:13:47;7.43;;;4.72;;
25279;SDS011;13225;47.804;12.116;2022-10-16T04:16:13;10.80;;;4.88;;
25279;SDS011;13225;47.804;12.116;2022-10-16T04:18:39;9.02;;;5.10;;
25279;SDS011;13225;47.804;12.116;2022-10-16T04:21:05;10.98;;;5.68;;
25279;SDS011;13225;47.804;12.116;2022-10-16T04:23:32;8.02;;;5.05;;
25279;SDS011;13225;47.804;12.116;2022-10-16T04:25:58;7.90;;;5.43;;
25279;SDS011;13225;47.804;12.116;2022-10-16T04:28:24;7.53;;;4.70;;
25279;SDS011;13225;47.804;12.116;2022-10-16T04:30:50;10.20;;;5.03;;
25279;SDS011;13225;47.804;12.116;2022-10-16T04:33:15;8.02;;;4.90;;
25279;SDS011;13225;47.804;12.116;2022-10-16T04:35:41;7.88;;;4.82;;
25279;SDS011;13225;47.804;12.116;2022-10-16T04:38:06;9.43;;;4.65;;
25279;SDS011;13225;47.804;12.116;2022-10-16T04:40:32;9.30;;;4.40;;
25279;SDS011;13225;47.804;12.116;2022-10-16T04:43:01;5.45;;;3.88;;
25279;SDS011;13225;47.804;12.116;2022-10-16T04:45:28;5.72;;;3.65;;
25279;SDS011;13225;47.804;12.116;2022-10-16T04:47:56;7.88;;;3.80;;
25279;SDS011;13225;47.804;12.116;2022-10-16T04:50:26;5.40;;;3.67;;
25279;SDS011;13225;47.804;12.116;2022-10-16T04:52:51;6.65;;;3.78;;
25279;SDS011;13225;47.804;12.116;2022-10-16T04:55:17;5.53;;;3.78;;
25279;SDS011;13225;47.804;12.116;2022-10-16T04:57:43;7.32;;;4.13;;
25279;SDS011;13225;47.804;12.116;2022-10-16T05:00:09;6.78;;;3.90;;
25279;SDS011;13225;47.804;12.116;2022-10-16T05:02:38;7.78;;;4.38;;
25279;SDS011;13225;47.804;12.116;2022-10-16T05:05:03;6.63;;;4.40;;
25279;SDS011;13225;47.804;12.116;2022-10-16T05:07:29;13.18;;;5.35;;
25279;SDS011;13225;47.804;12.116;2022-10-16T05:09:55;7.72;;;4.82;;
25279;SDS011;13225;47.804;12.116;2022-10-16T05:12:21;9.25;;;4.57;;
25279;SDS011;13225;47.804;12.116;2022-10-16T05:14:46;10.43;;;4.95;;
25279;SDS011;13225;47.804;12.116;2022-10-16T05:17:12;7.97;;;4.88;;
25279;SDS011;13225;47.804;12.116;2022-10-16T05:19:38;7.50;;;4.50;;
25279;SDS011;13225;47.804;12.116;2022-10-16T05:22:03;9.25;;;4.57;;
25279;SDS011;13225;47.804;12.116;2022-10-16T05:24:29;7.72;;;4.30;;
25279;SDS011;13225;47.804;12.116;2022-10-16T05:26:54;5.60;;;4.15;;
25279;SDS011;13225;47.804;12.116;2022-10-16T05:29:20;6.93;;;4.40;;
25279;SDS011;13225;47.804;12.116;2022-10-16T05:31:46;9.75;;;5.15;;
25279;SDS011;13225;47.804;12.116;2022-10-16T05:34:11;9.90;;;4.88;;
25279;SDS011;13225;47.804;12.116;2022-10-16T05:36:37;6.95;;;4.28;;
25279;SDS011;13225;47.804;12.116;2022-10-16T05:39:03;8.45;;;4.60;;
25279;SDS011;13225;47.804;12.116;2022-10-16T05:41:28;6.57;;;4.55;;
25279;SDS011;13225;47.804;12.116;2022-10-16T05:43:54;6.28;;;4.10;;
25279;SDS011;13225;47.804;12.116;2022-10-16T05:46:20;7.28;;;4.47;;
25279;SDS011;13225;47.804;12.116;2022-10-16T05:48:45;5.30;;;3.92;;
25279;SDS011;13225;47.804;12.116;2022-10-16T05:51:12;9.73;;;4.40;;
25279;SDS011;13225;47.804;12.116;2022-10-16T05:53:39;8.30;;;4.55;;
25279;SDS011;13225;47.804;12.116;2022-10-16T05:56:06;7.82;;;4.18;;
25279;SDS011;13225;47.804;12.116;2022-10-16T05:58:34;6.22;;;3.88;;
25279;SDS011;13225;47.804;12.116;2022-10-16T06:01:02;5.85;;;4.10;;
25279;SDS011;13225;47.804;12.116;2022-10-16T06:03:33;4.75;;;3.13;;
25279;SDS011;13225;47.804;12.116;2022-10-16T06:05:59;4.65;;;3.45;;
25279;SDS011;13225;47.804;12.116;2022-10-16T06:08:31;7.60;;;3.45;;
25279;SDS011;13225;47.804;12.116;2022-10-16T06:11:01;5.90;;;3.30;;
25279;SDS011;13225;47.804;12.116;2022-10-16T06:13:31;4.78;;;3.10;;
25279;SDS011;13225;47.804;12.116;2022-10-16T06:15:58;5.50;;;3.03;;
25279;SDS011;13225;47.804;12.116;2022-10-16T06:18:25;3.60;;;3.17;;
25279;SDS011;13225;47.804;12.116;2022-10-16T06:20:52;6.35;;;2.90;;
25279;SDS011;13225;47.804;12.116;2022-10-16T06:23:18;4.72;;;3.35;;
25279;SDS011;13225;47.804;12.116;2022-10-16T06:25:44;5.03;;;3.20;;
25279;SDS011;13225;47.804;12.116;2022-10-16T06:28:09;4.18;;;3.22;;
25279;SDS011;13225;47.804;12.116;2022-10-16T06:30:35;3.47;;;3.17;;
25279;SDS011;13225;47.804;12.116;2022-10-16T06:33:00;4.55;;;3.20;;
25279;SDS011;13225;47.804;12.116;2022-10-16T06:35:26;4.90;;;3.13;;
25279;SDS011;13225;47.804;12.116;2022-10-16T06:37:52;3.85;;;3.00;;
25279;SDS011;13225;47.804;12.116;2022-10-16T06:40:18;5.05;;;3.38;;
25279;SDS011;13225;47.804;12.116;2022-10-16T06:42:44;3.20;;;2.85;;
25279;SDS011;13225;47.804;12.116;2022-10-16T06:45:10;5.10;;;3.40;;
25279;SDS011;13225;47.804;12.116;2022-10-16T06:47:35;5.47;;;3.20;;
25279;SDS011;13225;47.804;12.116;2022-10-16T06:50:02;4.07;;;2.72;;
25279;SDS011;13225;47.804;12.116;2022-10-16T06:52:28;8.88;;;3.00;;
25279;SDS011;13225;47.804;12.116;2022-10-16T06:54:54;4.53;;;2.88;;
25279;SDS011;13225;47.804;12.116;2022-10-16T06:57:19;4.47;;;3.38;;
25279;SDS011;13225;47.804;12.116;2022-10-16T06:59:45;3.40;;;3.10;;
25279;SDS011;13225;47.804;12.116;2022-10-16T07:02:11;5.43;;;3.05;;
25279;SDS011;13225;47.804;12.116;2022-10-16T07:04:36;5.30;;;2.90;;
25279;SDS011;13225;47.804;12.116;2022-10-16T07:07:02;3.53;;;3.17;;
25279;SDS011;13225;47.804;12.116;2022-10-16T07:09:28;5.85;;;3.17;;
25279;SDS011;13225;47.804;12.116;2022-10-16T07:11:53;7.15;;;3.28;;
25279;SDS011;13225;47.804;12.116;2022-10-16T07:14:20;4.38;;;3.22;;
25279;SDS011;13225;47.804;12.116;2022-10-16T07:16:46;4.70;;;2.97;;
25279;SDS011;13225;47.804;12.116;2022-10-16T07:19:12;5.50;;;2.63;;
25279;SDS011;13225;47.804;12.116;2022-10-16T07:21:40;6.85;;;2.85;;
25279;SDS011;13225;47.804;12.116;2022-10-16T07:24:09;3.22;;;2.50;;
25279;SDS011;13225;47.804;12.116;2022-10-16T07:26:37;3.63;;;3.03;;
25279;SDS011;13225;47.804;12.116;2022-10-16T07:29:04;5.00;;;3.00;;
25279;SDS011;13225;47.804;12.116;2022-10-16T07:31:32;4.65;;;2.90;;
25279;SDS011;13225;47.804;12.116;2022-10-16T07:33:59;4.72;;;3.28;;
25279;SDS011;13225;47.804;12.116;2022-10-16T07:36:25;3.70;;;2.85;;
25279;SDS011;13225;47.804;12.116;2022-10-16T07:38:51;7.22;;;3.20;;
25279;SDS011;13225;47.804;12.116;2022-10-16T07:41:18;3.78;;;2.60;;
25279;SDS011;13225;47.804;12.116;2022-10-16T07:43:48;3.50;;;2.75;;
25279;SDS011;13225;47.804;12.116;2022-10-16T07:46:15;4.65;;;3.25;;
25279;SDS011;13225;47.804;12.116;2022-10-16T07:48:42;6.50;;;3.88;;
25279;SDS011;13225;47.804;12.116;2022-10-16T07:51:11;3.88;;;3.00;;
25279;SDS011;13225;47.804;12.116;2022-10-16T07:53:37;6.03;;;3.03;;
25279;SDS011;13225;47.804;12.116;2022-10-16T07:56:04;4.20;;;2.78;;
25279;SDS011;13225;47.804;12.116;2022-10-16T07:58:32;4.57;;;3.20;;
25279;SDS011;13225;47.804;12.116;2022-10-16T08:00:58;4.05;;;2.88;;
25279;SDS011;13225;47.804;12.116;2022-10-16T08:03:30;4.35;;;2.70;;
25279;SDS011;13225;47.804;12.116;2022-10-16T08:05:56;5.53;;;3.08;;
25279;SDS011;13225;47.804;12.116;2022-10-16T08:08:22;4.07;;;3.17;;
25279;SDS011;13225;47.804;12.116;2022-10-16T08:10:49;3.55;;;2.50;;
25279;SDS011;13225;47.804;12.116;2022-10-16T08:13:14;5.05;;;2.55;;
25279;SDS011;13225;47.804;12.116;2022-10-16T08:15:41;4.35;;;2.70;;
25279;SDS011;13225;47.804;12.116;2022-10-16T08:18:07;2.60;;;2.40;;
25279;SDS011;13225;47.804;12.116;2022-10-16T08:20:34;4.18;;;2.88;;
25279;SDS011;13225;47.804;12.116;2022-10-16T08:23:00;3.50;;;2.65;;
25279;SDS011;13225;47.804;12.116;2022-10-16T08:25:26;6.80;;;2.70;;
25279;SDS011;13225;47.804;12.116;2022-10-16T08:27:52;3.83;;;2.63;;
25279;SDS011;13225;47.804;12.116;2022-10-16T08:30:18;3.55;;;2.40;;
25279;SDS011;13225;47.804;12.116;2022-10-16T08:32:45;3.78;;;2.90;;
25279;SDS011;13225;47.804;12.116;2022-10-16T08:35:11;4.00;;;2.92;;
25279;SDS011;13225;47.804;12.116;2022-10-16T08:37:38;6.63;;;3.40;;
25279;SDS011;13225;47.804;12.116;2022-10-16T08:40:04;5.30;;;3.40;;
25279;SDS011;13225;47.804;12.116;2022-10-16T08:50:30;6.65;;;3.30;;
25279;SDS011;13225;47.804;12.116;2022-10-16T08:52:58;7.00;;;3.05;;
25279;SDS011;13225;47.804;12.116;2022-10-16T08:55:31;3.45;;;2.85;;
25279;SDS011;13225;47.804;12.116;2022-10-16T08:58:30;4.50;;;3.20;;
25279;SDS011;13225;47.804;12.116;2022-10-16T09:00:59;4.05;;;2.80;;
25279;SDS011;13225;47.804;12.116;2022-10-16T09:12:03;2.80;;;2.45;;
25279;SDS011;13225;47.804;12.116;2022-10-16T09:14:54;3.83;;;2.90;;
25279;SDS011;13225;47.804;12.116;2022-10-16T09:20:29;3.58;;;2.90;;
25279;SDS011;13225;47.804;12.116;2022-10-16T09:23:27;4.40;;;3.13;;
25279;SDS011;13225;47.804;12.116;2022-10-16T09:25:59;4.47;;;3.30;;
25279;SDS011;13225;47.804;12.116;2022-10-16T09:28:25;6.55;;;3.13;;
25279;SDS011;13225;47.804;12.116;2022-10-16T09:30:51;5.15;;;2.83;;
25279;SDS011;13225;47.804;12.116;2022-10-16T09:33:18;3.60;;;2.60;;
25279;SDS011;13225;47.804;12.116;2022-10-16T09:35:47;3.80;;;2.80;;
25279;SDS011;13225;47.804;12.116;2022-10-16T09:41:17;3.47;;;3.17;;
25279;SDS011;13225;47.804;12.116;2022-10-16T09:43:57;3.88;;;2.92;;
25279;SDS011;13225;47.804;12.116;2022-10-16T09:46:32;3.25;;;2.78;;
25279;SDS011;13225;47.804;12.116;2022-10-16T09:49:03;4.20;;;2.90;;
25279;SDS011;13225;47.804;12.116;2022-10-16T09:51:32;3.55;;;3.15;;
25279;SDS011;13225;47.804;12.116;2022-10-16T09:56:28;3.60;;;2.97;;
25279;SDS011;13225;47.804;12.116;2022-10-16T09:59:16;3.67;;;3.03;;
25279;SDS011;13225;47.804;12.116;2022-10-16T10:06:47;4.18;;;3.05;;
25279;SDS011;13225;47.804;12.116;2022-10-16T10:09:21;4.18;;;2.60;;
25279;SDS011;13225;47.804;12.116;2022-10-16T10:11:56;4.50;;;3.10;;
25279;SDS011;13225;47.804;12.116;2022-10-16T10:17:08;5.25;;;3.03;;
25279;SDS011;13225;47.804;12.116;2022-10-16T10:19:40;4.28;;;3.03;;
25279;SDS011;13225;47.804;12.116;2022-10-16T10:22:13;3.97;;;3.55;;
25279;SDS011;13225;47.804;12.116;2022-10-16T10:27:32;3.55;;;3.25;;
25279;SDS011;13225;47.804;12.116;2022-10-16T10:30:05;7.80;;;3.85;;
25279;SDS011;13225;47.804;12.116;2022-10-16T10:32:47;5.35;;;3.55;;
25279;SDS011;13225;47.804;12.116;2022-10-16T10:38:29;5.00;;;4.55;;
25279;SDS011;13225;47.804;12.116;2022-10-16T10:41:06;5.63;;;3.05;;
25279;SDS011;13225;47.804;12.116;2022-10-16T10:50:13;3.20;;;2.90;;
25279;SDS011;13225;47.804;12.116;2022-10-16T10:55:36;3.60;;;2.90;;
25279;SDS011;13225;47.804;12.116;2022-10-16T11:06:20;3.60;;;3.13;;
25279;SDS011;13225;47.804;12.116;2022-10-16T11:11:24;4.22;;;3.20;;
25279;SDS011;13225;47.804;12.116;2022-10-16T11:14:01;4.78;;;3.20;;
25279;SDS011;13225;47.804;12.116;2022-10-16T11:19:52;4.35;;;3.70;;
25279;SDS011;13225;47.804;12.116;2022-10-16T11:22:30;5.18;;;3.90;;
25279;SDS011;13225;47.804;12.116;2022-10-16T11:30:06;3.13;;;2.80;;
25279;SDS011;13225;47.804;12.116;2022-10-16T11:32:51;5.40;;;3.42;;
25279;SDS011;13225;47.804;12.116;2022-10-16T11:35:28;3.20;;;2.90;;
25279;SDS011;13225;47.804;12.116;2022-10-16T11:40:47;6.10;;;2.70;;
25279;SDS011;13225;47.804;12.116;2022-10-16T11:43:28;3.45;;;2.67;;
25279;SDS011;13225;47.804;12.116;2022-10-16T11:46:24;3.78;;;2.90;;
25279;SDS011;13225;47.804;12.116;2022-10-16T11:48:56;4.78;;;2.70;;
25279;SDS011;13225;47.804;12.116;2022-10-16T11:51:33;3.88;;;2.88;;
25279;SDS011;13225;47.804;12.116;2022-10-16T11:54:08;3.28;;;2.65;;
25279;SDS011;13225;47.804;12.116;2022-10-16T11:56:36;3.38;;;2.40;;
25279;SDS011;13225;47.804;12.116;2022-10-16T11:59:07;4.00;;;2.80;;
25279;SDS011;13225;47.804;12.116;2022-10-16T12:01:49;4.55;;;2.60;;
25279;SDS011;13225;47.804;12.116;2022-10-16T12:07:05;3.25;;;2.95;;
25279;SDS011;13225;47.804;12.116;2022-10-16T12:09:36;4.75;;;3.10;;
25279;SDS011;13225;47.804;12.116;2022-10-16T12:12:04;3.65;;;3.03;;
25279;SDS011;13225;47.804;12.116;2022-10-16T12:17:23;2.60;;;2.00;;
25279;SDS011;13225;47.804;12.116;2022-10-16T12:20:12;4.93;;;2.55;;
25279;SDS011;13225;47.804;12.116;2022-10-16T12:22:47;3.92;;;2.60;;
25279;SDS011;13225;47.804;12.116;2022-10-16T12:25:22;3.10;;;2.58;;
25279;SDS011;13225;47.804;12.116;2022-10-16T12:28:04;2.75;;;2.35;;
25279;SDS011;13225;47.804;12.116;2022-10-16T12:30:33;2.53;;;2.10;;
25279;SDS011;13225;47.804;12.116;2022-10-16T12:33:02;3.60;;;2.20;;
25279;SDS011;13225;47.804;12.116;2022-10-16T12:35:31;2.80;;;2.20;;
25279;SDS011;13225;47.804;12.116;2022-10-16T12:40:46;3.08;;;2.03;;
25279;SDS011;13225;47.804;12.116;2022-10-16T12:43:35;2.20;;;2.00;;
25279;SDS011;13225;47.804;12.116;2022-10-16T12:48:36;3.00;;;2.13;;
25279;SDS011;13225;47.804;12.116;2022-10-16T12:51:22;2.10;;;1.95;;
25279;SDS011;13225;47.804;12.116;2022-10-16T12:56:37;2.20;;;2.00;;
25279;SDS011;13225;47.804;12.116;2022-10-16T13:02:31;2.88;;;2.47;;
25279;SDS011;13225;47.804;12.116;2022-10-16T13:05:23;2.95;;;2.30;;
25279;SDS011;13225;47.804;12.116;2022-10-16T13:27:15;2.42;;;1.88;;
25279;SDS011;13225;47.804;12.116;2022-10-16T13:29:43;1.90;;;1.80;;
25279;SDS011;13225;47.804;12.116;2022-10-16T13:32:10;2.65;;;1.80;;
25279;SDS011;13225;47.804;12.116;2022-10-16T13:34:44;2.13;;;1.85;;
25279;SDS011;13225;47.804;12.116;2022-10-16T13:37:18;2.22;;;1.80;;
25279;SDS011;13225;47.804;12.116;2022-10-16T13:39:46;2.22;;;2.05;;
25279;SDS011;13225;47.804;12.116;2022-10-16T13:42:14;3.35;;;2.08;;
25279;SDS011;13225;47.804;12.116;2022-10-16T13:44:51;1.80;;;1.70;;
25279;SDS011;13225;47.804;12.116;2022-10-16T13:47:25;2.00;;;1.80;;
25279;SDS011;13225;47.804;12.116;2022-10-16T13:50:00;3.22;;;2.10;;
25279;SDS011;13225;47.804;12.116;2022-10-16T13:52:29;6.20;;;2.20;;
25279;SDS011;13225;47.804;12.116;2022-10-16T13:54:55;3.15;;;1.90;;
25279;SDS011;13225;47.804;12.116;2022-10-16T13:57:21;2.33;;;2.17;;
25279;SDS011;13225;47.804;12.116;2022-10-16T13:59:49;2.78;;;1.92;;
25279;SDS011;13225;47.804;12.116;2022-10-16T14:02:31;2.92;;;2.30;;
25279;SDS011;13225;47.804;12.116;2022-10-16T14:05:03;2.47;;;2.28;;
25279;SDS011;13225;47.804;12.116;2022-10-16T14:07:34;2.40;;;2.20;;
25279;SDS011;13225;47.804;12.116;2022-10-16T14:10:02;2.58;;;2.10;;
25279;SDS011;13225;47.804;12.116;2022-10-16T14:12:30;3.53;;;2.28;;
25279;SDS011;13225;47.804;12.116;2022-10-16T14:14:57;3.17;;;2.67;;
25279;SDS011;13225;47.804;12.116;2022-10-16T14:17:26;3.78;;;1.92;;
25279;SDS011;13225;47.804;12.116;2022-10-16T14:19:58;2.17;;;2.08;;
25279;SDS011;13225;47.804;12.116;2022-10-16T14:22:30;2.85;;;2.00;;
25279;SDS011;13225;47.804;12.116;2022-10-16T14:25:02;4.70;;;2.25;;
25279;SDS011;13225;47.804;12.116;2022-10-16T14:27:43;3.47;;;2.40;;
25279;SDS011;13225;47.804;12.116;2022-10-16T14:30:13;6.15;;;2.50;;
25279;SDS011;13225;47.804;12.116;2022-10-16T14:33:04;2.70;;;2.50;;
25279;SDS011;13225;47.804;12.116;2022-10-16T14:35:43;2.40;;;2.20;;
25279;SDS011;13225;47.804;12.116;2022-10-16T14:38:18;3.72;;;2.42;;
25279;SDS011;13225;47.804;12.116;2022-10-16T14:40:48;3.45;;;2.45;;
25279;SDS011;13225;47.804;12.116;2022-10-16T14:43:19;2.88;;;2.47;;
25279;SDS011;13225;47.804;12.116;2022-10-16T14:48:18;5.32;;;2.80;;
25279;SDS011;13225;47.804;12.116;2022-10-16T14:50:44;3.65;;;2.90;;
25279;SDS011;13225;47.804;12.116;2022-10-16T14:53:14;2.65;;;1.33;;
25279;SDS011;13225;47.804;12.116;2022-10-16T14:55:40;1.30;;;1.20;;
25279;SDS011;13225;47.804;12.116;2022-10-16T14:58:10;1.20;;;1.00;;
25279;SDS011;13225;47.804;12.116;2022-10-16T15:00:47;1.85;;;0.90;;
25279;SDS011;13225;47.804;12.116;2022-10-16T15:03:13;1.10;;;1.00;;
25279;SDS011;13225;47.804;12.116;2022-10-16T15:05:39;0.80;;;0.80;;
25279;SDS011;13225;47.804;12.116;2022-10-16T15:08:06;3.47;;;1.20;;
25279;SDS011;13225;47.804;12.116;2022-10-16T15:10:33;0.95;;;0.85;;
25279;SDS011;13225;47.804;12.116;2022-10-16T15:13:03;1.75;;;1.00;;
25279;SDS011;13225;47.804;12.116;2022-10-16T15:18:01;1.90;;;0.95;;
25279;SDS011;13225;47.804;12.116;2022-10-16T15:20:28;1.58;;;1.17;;
25279;SDS011;13225;47.804;12.116;2022-10-16T15:22:56;2.05;;;1.05;;
25279;SDS011;13225;47.804;12.116;2022-10-16T15:27:51;1.45;;;1.13;;
25279;SDS011;13225;47.804;12.116;2022-10-16T15:30:16;1.55;;;0.90;;
25279;SDS011;13225;47.804;12.116;2022-10-16T15:32:42;1.00;;;0.90;;
25279;SDS011;13225;47.804;12.116;2022-10-16T15:35:08;2.25;;;0.90;;
25279;SDS011;13225;47.804;12.116;2022-10-16T15:37:34;3.60;;;1.20;;
25279;SDS011;13225;47.804;12.116;2022-10-16T15:40:00;4.63;;;1.38;;
25279;SDS011;13225;47.804;12.116;2022-10-16T15:42:25;1.60;;;1.17;;
25279;SDS011;13225;47.804;12.116;2022-10-16T15:44:51;7.20;;;1.90;;
25279;SDS011;13225;47.804;12.116;2022-10-16T15:47:17;5.18;;;1.70;;
25279;SDS011;13225;47.804;12.116;2022-10-16T15:49:42;1.48;;;1.38;;
25279;SDS011;13225;47.804;12.116;2022-10-16T15:52:08;4.28;;;1.40;;
25279;SDS011;13225;47.804;12.116;2022-10-16T15:54:33;6.00;;;1.75;;
25279;SDS011;13225;47.804;12.116;2022-10-16T15:56:59;4.28;;;1.33;;
25279;SDS011;13225;47.804;12.116;2022-10-16T15:59:26;8.50;;;2.17;;
25279;SDS011;13225;47.804;12.116;2022-10-16T16:01:51;3.33;;;1.85;;
25279;SDS011;13225;47.804;12.116;2022-10-16T16:04:17;3.40;;;1.77;;
25279;SDS011;13225;47.804;12.116;2022-10-16T16:06:43;4.32;;;1.80;;
25279;SDS011;13225;47.804;12.116;2022-10-16T16:09:10;2.88;;;1.40;;
25279;SDS011;13225;47.804;12.116;2022-10-16T16:11:36;2.33;;;1.80;;
25279;SDS011;13225;47.804;12.116;2022-10-16T16:14:04;3.30;;;1.70;;
25279;SDS011;13225;47.804;12.116;2022-10-16T16:16:30;2.33;;;1.67;;
25279;SDS011;13225;47.804;12.116;2022-10-16T16:18:58;3.28;;;1.70;;
25279;SDS011;13225;47.804;12.116;2022-10-16T16:21:24;6.88;;;2.00;;
25279;SDS011;13225;47.804;12.116;2022-10-16T16:23:49;4.75;;;2.00;;
25279;SDS011;13225;47.804;12.116;2022-10-16T16:26:21;3.90;;;2.10;;
25279;SDS011;13225;47.804;12.116;2022-10-16T16:28:52;2.50;;;2.05;;
25279;SDS011;13225;47.804;12.116;2022-10-16T16:31:19;6.15;;;2.67;;
25279;SDS011;13225;47.804;12.116;2022-10-16T16:33:51;7.10;;;2.50;;
25279;SDS011;13225;47.804;12.116;2022-10-16T16:36:17;8.00;;;2.30;;
25279;SDS011;13225;47.804;12.116;2022-10-16T16:38:45;2.95;;;2.58;;
25279;SDS011;13225;47.804;12.116;2022-10-16T16:41:15;6.80;;;2.63;;
25279;SDS011;13225;47.804;12.116;2022-10-16T16:43:44;4.18;;;2.38;;
25279;SDS011;13225;47.804;12.116;2022-10-16T16:46:12;4.78;;;2.72;;
25279;SDS011;13225;47.804;12.116;2022-10-16T16:48:39;7.20;;;2.55;;
25279;SDS011;13225;47.804;12.116;2022-10-16T16:51:09;7.93;;;2.60;;
25279;SDS011;13225;47.804;12.116;2022-10-16T16:53:43;3.67;;;2.50;;
25279;SDS011;13225;47.804;12.116;2022-10-16T16:56:11;8.27;;;5.10;;
25279;SDS011;13225;47.804;12.116;2022-10-16T16:58:38;5.45;;;4.13;;
25279;SDS011;13225;47.804;12.116;2022-10-16T17:01:03;5.07;;;3.28;;
25279;SDS011;13225;47.804;12.116;2022-10-16T17:03:33;6.82;;;3.30;;